createdAt,value
2019-04-25T00:00:48.915Z,13.20
2019-04-25T00:03:22.294Z,13.10
2019-04-25T00:05:52.300Z,13.10
2019-04-25T00:08:21.492Z,13.00
2019-04-25T00:10:51.638Z,12.90
2019-04-25T00:13:21.691Z,12.80
2019-04-25T00:15:51.813Z,12.80
2019-04-25T00:18:23.190Z,12.80
2019-04-25T00:20:52.301Z,12.80
2019-04-25T00:23:22.088Z,12.70
2019-04-25T00:25:55.229Z,12.60
2019-04-25T00:28:23.694Z,12.60
2019-04-25T00:30:52.952Z,12.50
2019-04-25T00:33:21.651Z,12.40
2019-04-25T00:35:51.340Z,12.40
2019-04-25T00:38:22.106Z,12.40
2019-04-25T00:40:52.044Z,12.40
2019-04-25T00:43:21.459Z,12.20
2019-04-25T00:45:51.344Z,12.00
2019-04-25T00:48:20.094Z,11.90
2019-04-25T00:50:48.506Z,11.80
2019-04-25T00:53:16.926Z,11.80
2019-04-25T00:55:45.368Z,11.70
2019-04-25T00:58:15.442Z,11.50
2019-04-25T01:00:45.499Z,11.50
2019-04-25T01:03:15.574Z,11.60
2019-04-25T01:05:44.731Z,11.70
2019-04-25T01:08:14.109Z,11.70
2019-04-25T01:10:42.546Z,11.60
2019-04-25T01:13:11.246Z,11.60
2019-04-25T01:15:39.774Z,11.60
2019-04-25T01:18:08.682Z,11.40
2019-04-25T01:20:37.094Z,11.10
2019-04-25T01:23:05.501Z,11.00
2019-04-25T01:25:41.072Z,11.00
2019-04-25T01:28:03.998Z,11.10
2019-04-25T01:30:33.959Z,10.90
2019-04-25T01:33:03.501Z,10.80
2019-04-25T01:35:37.006Z,10.50
2019-04-25T01:38:15.694Z,10.50
2019-04-25T01:40:45.752Z,10.50
2019-04-25T01:43:15.806Z,10.40
2019-04-25T01:45:44.319Z,10.30
2019-04-25T01:48:13.611Z,10.30
2019-04-25T01:50:43.746Z,10.30
2019-04-25T01:53:12.357Z,10.20
2019-04-25T01:55:53.049Z,10.20
2019-04-25T01:58:10.826Z,10.20
2019-04-25T02:00:47.018Z,10.20
2019-04-25T02:03:15.837Z,10.30
2019-04-25T02:05:44.223Z,10.20
2019-04-25T02:08:14.319Z,10.10
2019-04-25T02:10:44.394Z,10.00
2019-04-25T02:13:20.472Z,9.90
2019-04-25T02:15:48.889Z,9.90
2019-04-25T02:18:17.562Z,9.60
2019-04-25T02:20:46.013Z,9.50
2019-04-25T02:23:14.456Z,9.40
2019-04-25T02:25:44.286Z,9.40
2019-04-25T02:28:13.961Z,9.40
2019-04-25T02:30:45.357Z,9.40
2019-04-25T02:33:14.306Z,9.30
2019-04-25T02:35:46.540Z,9.30
2019-04-25T02:38:14.756Z,9.30
2019-04-25T02:40:45.436Z,9.20
2019-04-25T02:43:14.396Z,9.20
2019-04-25T02:45:55.660Z,9.20
2019-04-25T02:48:28.887Z,9.10
2019-04-25T02:51:07.238Z,9.10
2019-04-25T02:53:37.566Z,9.10
2019-04-25T02:56:25.738Z,9.20
2019-04-25T02:58:36.446Z,9.10
2019-04-25T03:01:16.591Z,9.10
2019-04-25T03:03:37.104Z,9.00
2019-04-25T03:06:08.955Z,9.00
2019-04-25T03:08:36.309Z,9.00
2019-04-25T03:11:07.383Z,8.90
2019-04-25T03:13:35.633Z,8.90
2019-04-25T03:16:07.700Z,8.80
2019-04-25T03:18:36.791Z,8.90
2019-04-25T03:21:14.141Z,8.80
2019-04-25T03:23:42.753Z,8.80
2019-04-25T03:26:10.853Z,8.80
2019-04-25T03:28:39.585Z,8.80
2019-04-25T03:31:15.290Z,8.60
2019-04-25T03:33:38.840Z,8.60
2019-04-25T03:36:07.876Z,8.60
2019-04-25T03:38:36.666Z,8.60
2019-04-25T03:41:06.183Z,8.50
2019-04-25T03:43:35.793Z,8.50
2019-04-25T03:46:05.889Z,8.50
2019-04-25T03:48:36.798Z,8.60
2019-04-25T03:51:05.878Z,8.50
2019-04-25T03:53:35.365Z,8.50
2019-04-25T03:56:05.830Z,8.30
2019-04-25T03:58:34.397Z,8.20
2019-04-25T04:01:05.934Z,8.20
2019-04-25T04:03:33.910Z,8.20
2019-04-25T04:06:04.369Z,8.10
2019-04-25T04:08:34.285Z,8.00
2019-04-25T04:11:05.367Z,7.50
2019-04-25T04:13:34.279Z,7.50
2019-04-25T04:16:03.421Z,7.60
2019-04-25T04:18:34.738Z,7.70
2019-04-25T04:21:23.597Z,7.70
2019-04-25T04:23:57.241Z,7.80
2019-04-25T04:26:26.065Z,7.90
2019-04-25T04:28:54.807Z,8.00
2019-04-25T04:31:23.588Z,7.90
2019-04-25T04:33:53.081Z,7.90
2019-04-25T04:36:22.000Z,8.00
2019-04-25T04:38:50.735Z,8.00
2019-04-25T04:41:19.364Z,8.00
2019-04-25T04:43:48.324Z,8.00
2019-04-25T04:46:18.513Z,8.10
2019-04-25T04:48:47.616Z,8.30
2019-04-25T04:51:16.887Z,9.80
2019-04-25T04:53:45.376Z,11.90
2019-04-25T04:56:15.092Z,13.80
2019-04-25T04:58:44.028Z,15.30
2019-04-25T05:01:14.175Z,16.80
2019-04-25T05:03:54.054Z,18.20
2019-04-25T05:06:26.863Z,19.50
2019-04-25T05:08:56.926Z,20.90
2019-04-25T05:11:25.509Z,22.20
2019-04-25T05:13:54.201Z,23.30
2019-04-25T05:16:23.863Z,24.20
2019-04-25T05:18:55.277Z,24.90
2019-04-25T05:21:22.632Z,25.10
2019-04-25T05:23:51.101Z,24.10
2019-04-25T05:26:19.542Z,22.50
2019-04-25T05:28:47.964Z,21.10
2019-04-25T05:31:18.164Z,19.80
2019-04-25T05:33:46.649Z,18.50
2019-04-25T05:36:17.165Z,17.50
2019-04-25T05:38:45.198Z,16.80
2019-04-25T05:41:16.118Z,16.30
2019-04-25T05:43:45.398Z,15.90
2019-04-25T05:46:15.261Z,15.40
2019-04-25T05:48:43.879Z,15.10
2019-04-25T05:51:13.642Z,14.90
2019-04-25T05:53:43.345Z,14.80
2019-04-25T05:56:11.879Z,14.80
2019-04-25T05:58:40.281Z,14.60
2019-04-25T06:01:08.703Z,14.50
2019-04-25T06:03:37.125Z,14.50
2019-04-25T06:06:05.553Z,14.50
2019-04-25T06:08:35.610Z,14.60
2019-04-25T06:11:11.532Z,14.50
2019-04-25T06:13:47.293Z,14.40
2019-04-25T06:16:18.445Z,14.40
2019-04-25T06:19:13.262Z,14.40
2019-04-25T06:21:35.021Z,14.30
2019-04-25T06:24:17.044Z,14.50
2019-04-25T06:26:50.500Z,14.60
2019-04-25T06:29:19.707Z,14.70
2019-04-25T06:31:48.858Z,14.70
2019-04-25T06:34:17.269Z,14.80
2019-04-25T06:36:45.684Z,15.00
2019-04-25T06:39:14.241Z,15.20
2019-04-25T06:41:44.142Z,15.40
2019-04-25T06:44:15.316Z,15.50
2019-04-25T06:47:03.280Z,15.60
2019-04-25T06:49:39.605Z,15.80
2019-04-25T06:52:08.031Z,16.00
2019-04-25T06:54:36.438Z,16.20
2019-04-25T06:57:04.886Z,16.40
2019-04-25T06:59:34.439Z,16.60
2019-04-25T07:02:04.246Z,16.70
2019-04-25T07:04:34.548Z,16.90
2019-04-25T07:07:10.579Z,16.90
2019-04-25T07:09:34.932Z,17.10
2019-04-25T07:12:03.683Z,17.30
2019-04-25T07:14:33.830Z,17.50
2019-04-25T07:17:02.206Z,17.60
2019-04-25T07:19:30.631Z,17.80
2019-04-25T07:21:59.071Z,18.00
2019-04-25T07:24:27.486Z,18.00
2019-04-25T07:27:14.062Z,18.10
2019-04-25T07:29:53.890Z,18.20
2019-04-25T07:32:29.656Z,18.30
2019-04-25T07:34:56.886Z,18.40
2019-04-25T07:37:26.030Z,18.40
2019-04-25T07:39:55.364Z,18.60
2019-04-25T07:42:23.993Z,18.70
2019-04-25T07:44:53.473Z,18.80
2019-04-25T07:47:24.126Z,18.90
2019-04-25T07:49:54.099Z,19.00
2019-04-25T07:52:23.382Z,19.20
2019-04-25T07:54:51.965Z,19.30
2019-04-25T07:57:20.366Z,19.30
2019-04-25T07:59:51.530Z,19.30
2019-04-25T08:02:18.935Z,19.40
2019-04-25T08:04:47.358Z,19.40
2019-04-25T08:07:15.771Z,19.50
2019-04-25T08:09:44.392Z,19.70
2019-04-25T08:12:13.304Z,19.70
2019-04-25T08:14:46.398Z,19.80
2019-04-25T08:17:31.515Z,19.90
2019-04-25T08:19:59.932Z,20.00
2019-04-25T08:22:28.356Z,20.10
2019-04-25T08:24:56.806Z,20.20
2019-04-25T08:27:25.234Z,20.20
2019-04-25T08:29:54.218Z,20.30
2019-04-25T08:32:23.806Z,20.30
2019-04-25T08:34:54.205Z,20.50
2019-04-25T08:37:24.045Z,20.40
2019-04-25T08:39:53.922Z,20.40
2019-04-25T08:42:24.166Z,20.50
2019-04-25T08:44:53.439Z,20.70
2019-04-25T08:47:22.007Z,20.80
2019-04-25T08:50:01.176Z,20.80
2019-04-25T08:52:29.695Z,20.80
2019-04-25T08:54:59.751Z,21.00
2019-04-25T08:57:48.207Z,21.00
2019-04-25T09:00:18.334Z,21.00
2019-04-25T09:02:51.757Z,21.10
2019-04-25T09:05:24.820Z,21.20
2019-04-25T09:07:54.393Z,21.20
2019-04-25T09:10:23.743Z,21.20
2019-04-25T09:12:53.701Z,21.40
2019-04-25T09:15:23.992Z,21.40
2019-04-25T09:17:54.305Z,21.40
2019-04-25T09:20:23.551Z,21.40
2019-04-25T09:22:52.108Z,21.60
2019-04-25T09:25:23.844Z,21.70
2019-04-25T09:27:54.180Z,21.70
2019-04-25T09:30:24.056Z,21.80
2019-04-25T09:32:53.427Z,21.90
2019-04-25T09:35:23.483Z,21.80
2019-04-25T09:37:53.489Z,21.90
2019-04-25T09:40:23.842Z,22.20
2019-04-25T09:42:53.659Z,22.30
2019-04-25T09:45:26.180Z,22.40
2019-04-25T09:47:58.294Z,22.50
2019-04-25T09:50:34.230Z,22.50
2019-04-25T09:53:02.651Z,22.50
2019-04-25T09:55:34.039Z,22.60
2019-04-25T09:58:04.271Z,22.40
2019-04-25T10:00:34.328Z,22.40
2019-04-25T10:03:04.514Z,22.60
2019-04-25T10:05:33.939Z,22.60
2019-04-25T10:08:03.390Z,22.40
2019-04-25T10:10:31.990Z,22.30
2019-04-25T10:13:00.407Z,22.30
2019-04-25T10:15:47.875Z,22.40
2019-04-25T10:18:16.623Z,22.60
2019-04-25T10:20:46.330Z,22.70
2019-04-25T10:23:15.679Z,22.70
2019-04-25T10:25:45.119Z,22.80
2019-04-25T10:28:13.599Z,22.70
2019-04-25T10:30:42.900Z,22.60
2019-04-25T10:33:11.532Z,22.50
2019-04-25T10:35:48.108Z,22.40
2019-04-25T10:38:10.027Z,22.40
2019-04-25T10:40:39.326Z,22.50
2019-04-25T10:43:07.965Z,22.50
2019-04-25T10:45:36.702Z,22.40
2019-04-25T10:48:05.086Z,22.50
2019-04-25T10:50:34.082Z,22.60
2019-04-25T10:53:04.054Z,22.60
2019-04-25T10:55:32.694Z,22.70
2019-04-25T10:58:01.110Z,22.70
2019-04-25T11:00:34.426Z,22.70
2019-04-25T11:03:19.416Z,22.80
2019-04-25T11:05:47.940Z,22.80
2019-04-25T11:08:16.930Z,22.80
2019-04-25T11:10:47.464Z,23.00
2019-04-25T11:13:15.471Z,23.00
2019-04-25T11:15:44.884Z,22.80
2019-04-25T11:18:15.234Z,22.70
2019-04-25T11:20:44.683Z,22.60
2019-04-25T11:23:13.976Z,22.60
2019-04-25T11:25:43.427Z,22.60
2019-04-25T11:28:14.360Z,22.60
2019-04-25T11:30:45.231Z,22.50
2019-04-25T11:33:14.332Z,22.40
2019-04-25T11:35:44.181Z,22.40
2019-04-25T11:38:14.621Z,22.30
2019-04-25T11:40:47.845Z,22.30
2019-04-25T11:43:14.776Z,22.30
2019-04-25T11:45:43.242Z,22.30
2019-04-25T11:48:13.386Z,22.40
2019-04-25T11:50:44.091Z,22.40
2019-04-25T11:53:12.060Z,22.50
2019-04-25T11:55:40.470Z,22.50
2019-04-25T11:58:08.941Z,22.70
2019-04-25T12:00:37.428Z,22.70
2019-04-25T12:03:06.307Z,22.70
2019-04-25T12:05:34.755Z,22.70
2019-04-25T12:08:04.100Z,22.80
2019-04-25T12:10:34.494Z,22.70
2019-04-25T12:13:03.158Z,22.80
2019-04-25T12:15:33.360Z,22.80
2019-04-25T12:18:01.883Z,22.70
2019-04-25T12:20:30.390Z,22.60
2019-04-25T12:23:08.470Z,22.50
2019-04-25T12:25:28.878Z,22.50
2019-04-25T12:27:57.335Z,22.50
2019-04-25T12:30:37.346Z,22.70
2019-04-25T12:32:56.874Z,22.80
2019-04-25T12:35:25.363Z,22.90
2019-04-25T12:37:55.125Z,22.90
2019-04-25T12:40:24.201Z,22.90
2019-04-25T12:42:52.839Z,22.90
2019-04-25T12:45:24.127Z,23.00
2019-04-25T12:47:57.291Z,23.10
2019-04-25T12:50:24.708Z,23.20
2019-04-25T12:52:54.693Z,23.30
2019-04-25T12:55:23.939Z,23.40
2019-04-25T12:57:53.646Z,23.60
2019-04-25T13:00:24.404Z,23.80
2019-04-25T13:02:53.995Z,24.00
2019-04-25T13:05:24.316Z,24.20
2019-04-25T13:07:57.025Z,24.20
2019-04-25T13:10:23.653Z,24.40
2019-04-25T13:12:55.290Z,24.40
2019-04-25T13:15:25.265Z,24.50
2019-04-25T13:17:53.635Z,24.50
2019-04-25T13:20:22.141Z,24.40
2019-04-25T13:22:53.294Z,24.40
2019-04-25T13:25:24.294Z,24.30
2019-04-25T13:27:57.595Z,24.30
2019-04-25T13:30:43.847Z,24.10
2019-04-25T13:33:19.539Z,24.00
2019-04-25T13:35:49.611Z,23.90
2019-04-25T13:38:18.099Z,23.90
2019-04-25T13:40:46.555Z,23.90
2019-04-25T13:43:16.736Z,24.00
2019-04-25T13:45:45.135Z,24.10
2019-04-25T13:48:13.571Z,24.20
2019-04-25T13:50:41.987Z,24.30
2019-04-25T13:53:10.411Z,24.30
2019-04-25T13:55:38.843Z,24.40
2019-04-25T13:58:07.533Z,24.40
2019-04-25T14:00:36.415Z,24.40
2019-04-25T14:03:05.416Z,24.40
2019-04-25T14:05:35.189Z,24.50
2019-04-25T14:08:03.886Z,24.50
2019-04-25T14:10:32.794Z,24.50
2019-04-25T14:13:03.517Z,24.50
2019-04-25T14:15:32.851Z,24.50
2019-04-25T14:18:04.005Z,24.50
2019-04-25T14:20:36.822Z,24.40
2019-04-25T14:23:06.876Z,24.40
2019-04-25T14:25:35.873Z,24.40
2019-04-25T14:28:05.631Z,24.50
2019-04-25T14:30:34.750Z,24.50
2019-04-25T14:33:06.524Z,24.50
2019-04-25T14:35:34.898Z,24.40
2019-04-25T14:38:03.913Z,24.30
2019-04-25T14:40:33.234Z,24.20
2019-04-25T14:43:01.756Z,24.10
2019-04-25T14:45:41.546Z,24.00
2019-04-25T14:48:00.344Z,24.00
2019-04-25T14:50:29.857Z,23.90
2019-04-25T14:52:58.593Z,23.90
2019-04-25T14:55:40.925Z,24.00
2019-04-25T14:58:13.702Z,24.10
2019-04-25T15:00:43.832Z,24.20
2019-04-25T15:03:12.311Z,24.00
2019-04-25T15:05:42.514Z,24.10
2019-04-25T15:08:11.021Z,24.10
2019-04-25T15:10:39.571Z,23.80
2019-04-25T15:13:08.946Z,23.20
2019-04-25T15:15:37.363Z,23.20
2019-04-25T15:18:07.913Z,23.10
2019-04-25T15:20:36.323Z,23.10
2019-04-25T15:23:04.805Z,23.00
2019-04-25T15:25:33.269Z,23.00
2019-04-25T15:28:01.835Z,23.00
2019-04-25T15:30:31.906Z,22.90
2019-04-25T15:33:00.466Z,22.90
2019-04-25T15:35:33.326Z,22.80
2019-04-25T15:38:09.606Z,22.80
2019-04-25T15:40:42.719Z,22.70
2019-04-25T15:43:18.279Z,22.70
2019-04-25T15:45:53.947Z,22.70
2019-04-25T15:48:22.477Z,22.70
2019-04-25T15:50:51.133Z,22.60
2019-04-25T15:53:19.555Z,22.50
2019-04-25T15:55:47.965Z,22.20
2019-04-25T15:58:16.421Z,22.00
2019-04-25T16:00:44.851Z,21.90
2019-04-25T16:03:13.556Z,22.20
2019-04-25T16:05:42.006Z,22.00
2019-04-25T16:08:10.441Z,21.90
2019-04-25T16:10:38.947Z,22.00
2019-04-25T16:13:07.817Z,22.00
2019-04-25T16:15:36.234Z,21.90
2019-04-25T16:18:05.723Z,21.80
2019-04-25T16:20:34.491Z,21.80
2019-04-25T16:23:02.949Z,21.70
2019-04-25T16:25:31.371Z,21.80
2019-04-25T16:27:59.821Z,21.60
2019-04-25T16:30:29.986Z,21.50
2019-04-25T16:32:58.395Z,21.40
2019-04-25T16:35:26.842Z,21.20
2019-04-25T16:37:55.254Z,21.10
2019-04-25T16:40:23.675Z,21.00
2019-04-25T16:42:52.191Z,21.00
2019-04-25T16:45:20.694Z,21.00
2019-04-25T16:47:49.106Z,21.00
2019-04-25T16:50:18.312Z,20.90
2019-04-25T16:52:46.719Z,20.90
2019-04-25T16:55:15.405Z,20.80
2019-04-25T16:57:43.963Z,20.80
2019-04-25T17:00:30.892Z,20.80
2019-04-25T17:02:59.698Z,20.70
2019-04-25T17:05:28.486Z,20.60
2019-04-25T17:07:56.907Z,20.50
2019-04-25T17:10:25.347Z,20.40
2019-04-25T17:12:53.812Z,20.30
2019-04-25T17:15:26.421Z,20.20
2019-04-25T17:17:56.504Z,20.10
2019-04-25T17:20:26.551Z,20.00
2019-04-25T17:22:55.036Z,20.00
2019-04-25T17:25:24.163Z,19.90
2019-04-25T17:27:52.639Z,19.80
2019-04-25T17:30:21.038Z,19.80
2019-04-25T17:32:53.964Z,19.70
2019-04-25T17:35:25.775Z,19.70
2019-04-25T17:37:58.891Z,19.50
2019-04-25T17:40:29.015Z,19.40
2019-04-25T17:42:57.423Z,19.40
2019-04-25T17:45:27.501Z,19.30
2019-04-25T17:47:55.906Z,19.20
2019-04-25T17:50:24.389Z,19.20
2019-04-25T17:52:52.906Z,19.20
2019-04-25T17:55:21.370Z,19.20
2019-04-25T17:57:49.843Z,19.10
2019-04-25T18:00:38.343Z,19.10
2019-04-25T18:03:08.730Z,19.10
2019-04-25T18:05:37.133Z,19.00
2019-04-25T18:08:05.559Z,18.90
2019-04-25T18:10:36.165Z,18.90
2019-04-25T18:13:05.589Z,18.90
2019-04-25T18:15:47.741Z,18.80
2019-04-25T18:18:17.812Z,18.80
2019-04-25T18:20:46.645Z,18.70
2019-04-25T18:23:19.723Z,18.70
2019-04-25T18:26:05.162Z,18.70
2019-04-25T18:28:41.554Z,18.60
2019-04-25T18:31:10.093Z,18.60
2019-04-25T18:33:39.345Z,18.40
2019-04-25T18:36:09.546Z,18.40
2019-04-25T18:38:57.756Z,18.30
2019-04-25T18:41:27.834Z,18.30
2019-04-25T18:43:57.892Z,18.30
2019-04-25T18:46:33.715Z,18.20
2019-04-25T18:49:02.130Z,18.20
2019-04-25T18:51:30.546Z,18.10
2019-04-25T18:54:00.619Z,18.10
2019-04-25T18:56:37.716Z,18.00
2019-04-25T18:59:24.428Z,18.00
2019-04-25T19:02:00.647Z,17.90
2019-04-25T19:04:33.675Z,17.90
2019-04-25T19:07:02.091Z,17.90
2019-04-25T19:09:30.512Z,17.90
2019-04-25T19:11:58.983Z,17.90
2019-04-25T19:14:27.438Z,17.90
2019-04-25T19:16:55.822Z,17.80
2019-04-25T19:19:24.271Z,17.70
2019-04-25T19:21:53.090Z,17.70
2019-04-25T19:24:21.500Z,17.70
2019-04-25T19:26:49.947Z,17.70
2019-04-25T19:29:18.375Z,17.70
2019-04-25T19:31:46.786Z,17.70
2019-04-25T19:34:15.219Z,17.60
2019-04-25T19:36:43.634Z,17.50
2019-04-25T19:39:12.310Z,17.50
2019-04-25T19:41:42.958Z,17.40
2019-04-25T19:44:13.154Z,17.40
2019-04-25T19:46:47.089Z,17.40
2019-04-25T19:49:15.510Z,17.40
2019-04-25T19:51:43.931Z,17.30
2019-04-25T19:54:12.672Z,17.30
2019-04-25T19:56:42.370Z,17.30
2019-04-25T19:59:11.138Z,17.20
2019-04-25T20:01:39.555Z,17.20
2019-04-25T20:04:12.367Z,17.20
2019-04-25T20:06:58.612Z,17.10
2019-04-25T20:09:34.527Z,17.10
2019-04-25T20:12:03.819Z,17.10
2019-04-25T20:14:32.223Z,17.00
2019-04-25T20:17:00.683Z,16.90
2019-04-25T20:19:29.095Z,16.90
2019-04-25T20:21:57.515Z,16.90
2019-04-25T20:24:25.956Z,16.90
2019-04-25T20:26:54.610Z,17.00
2019-04-25T20:29:23.182Z,17.00
2019-04-25T20:31:52.720Z,17.00
2019-04-25T20:34:21.244Z,17.00
2019-04-25T20:36:49.672Z,17.00
2019-04-25T20:39:18.110Z,17.00
2019-04-25T20:41:47.069Z,17.00
2019-04-25T20:44:16.440Z,17.00
2019-04-25T20:46:46.619Z,16.90
2019-04-25T20:49:15.014Z,16.90
2019-04-25T20:51:43.426Z,16.90
2019-04-25T20:54:11.871Z,16.90
2019-04-25T20:56:40.290Z,16.80
2019-04-25T20:59:08.707Z,16.90
2019-04-25T21:01:37.318Z,16.90
2019-04-25T21:04:12.969Z,16.90
2019-04-25T21:06:39.076Z,16.90
2019-04-25T21:09:07.593Z,16.90
2019-04-25T21:11:35.999Z,16.90
2019-04-25T21:14:06.046Z,16.90
2019-04-25T21:16:48.247Z,16.90
2019-04-25T21:19:27.095Z,16.80
2019-04-25T21:21:56.399Z,16.70
2019-04-25T21:24:24.979Z,16.70
2019-04-25T21:26:53.391Z,16.70
2019-04-25T21:29:21.831Z,16.70
2019-04-25T21:31:51.162Z,16.70
2019-04-25T21:34:25.770Z,16.60
2019-04-25T21:36:49.853Z,16.60
2019-04-25T21:39:22.828Z,16.60
2019-04-25T21:41:55.848Z,16.70
2019-04-25T21:44:24.517Z,16.70
2019-04-25T21:46:53.649Z,16.70
2019-04-25T21:49:25.221Z,16.70
2019-04-25T21:51:54.148Z,16.80
2019-04-25T21:54:23.557Z,16.70
2019-04-25T21:56:53.302Z,16.70
2019-04-25T21:59:22.260Z,16.60
2019-04-25T22:01:50.740Z,16.60
2019-04-25T22:04:19.181Z,16.50
2019-04-25T22:06:47.925Z,16.50
2019-04-25T22:09:18.378Z,16.50
2019-04-25T22:11:47.122Z,16.50
2019-04-25T22:14:16.210Z,16.50
2019-04-25T22:16:44.930Z,16.40
2019-04-25T22:19:13.690Z,16.40
2019-04-25T22:21:42.550Z,16.40
2019-04-25T22:24:14.431Z,16.40
2019-04-25T22:26:41.050Z,16.30
2019-04-25T22:29:09.788Z,16.30
2019-04-25T22:31:48.894Z,16.40
2019-04-25T22:34:27.977Z,16.40
2019-04-25T22:36:56.417Z,16.40
2019-04-25T22:39:25.103Z,16.40
2019-04-25T22:41:53.716Z,16.30
2019-04-25T22:44:22.722Z,16.30
2019-04-25T22:46:51.659Z,16.20
2019-04-25T22:49:20.020Z,16.10
2019-04-25T22:51:48.546Z,16.00
2019-04-25T22:54:17.274Z,16.10
2019-04-25T22:56:45.681Z,16.10
2019-04-25T22:59:14.516Z,16.10
2019-04-25T23:01:54.037Z,16.10
2019-04-25T23:04:27.126Z,16.00
2019-04-25T23:06:55.538Z,15.90
2019-04-25T23:09:23.961Z,15.80
2019-04-25T23:11:52.709Z,15.80
2019-04-25T23:14:21.435Z,16.00
2019-04-25T23:16:49.841Z,16.10
2019-04-25T23:19:18.313Z,16.20
2019-04-25T23:21:47.072Z,16.20
2019-04-25T23:24:17.091Z,16.20
2019-04-25T23:27:02.359Z,16.20
2019-04-25T23:29:30.769Z,16.20
2019-04-25T23:31:59.186Z,16.20
2019-04-25T23:34:27.918Z,16.30
2019-04-25T23:36:56.398Z,16.20
2019-04-25T23:39:25.130Z,16.20
2019-04-25T23:41:53.574Z,16.20
2019-04-25T23:44:21.989Z,16.20
2019-04-25T23:46:50.720Z,16.20
2019-04-25T23:49:19.156Z,16.20
2019-04-25T23:51:47.865Z,16.20
2019-04-25T23:54:17.123Z,16.20
2019-04-25T23:56:45.729Z,16.10
2019-04-25T23:59:14.441Z,16.20
